createdAt,value
2023-01-26T00:02:17.999Z,33.60
2023-01-26T00:04:46.175Z,32.00
2023-01-26T00:07:14.158Z,32.10
2023-01-26T00:09:42.296Z,33.60
2023-01-26T00:12:10.380Z,31.10
2023-01-26T00:14:51.062Z,31.80
2023-01-26T00:17:26.285Z,29.60
2023-01-26T00:19:55.411Z,30.00
2023-01-26T00:22:24.661Z,33.10
2023-01-26T00:24:56.131Z,30.90
2023-01-26T00:27:24.143Z,31.00
2023-01-26T00:29:52.136Z,24.50
2023-01-26T00:32:21.763Z,31.40
2023-01-26T00:34:50.061Z,31.80
2023-01-26T00:37:18.262Z,31.60
2023-01-26T00:39:46.349Z,30.70
2023-01-26T00:42:16.055Z,30.10
2023-01-26T00:44:44.154Z,27.90
2023-01-26T00:47:12.871Z,31.60
2023-01-26T00:49:41.451Z,29.10
2023-01-26T00:52:09.935Z,30.70
2023-01-26T00:54:37.828Z,31.90
2023-01-26T00:57:05.980Z,33.10
2023-01-26T00:59:34.733Z,32.50
2023-01-26T01:02:02.946Z,36.60
2023-01-26T01:04:31.627Z,33.00
2023-01-26T01:07:01.573Z,35.90
2023-01-26T01:09:30.128Z,36.90
2023-01-26T01:11:58.100Z,38.00
2023-01-26T01:14:26.159Z,34.50
2023-01-26T01:16:54.238Z,33.60
2023-01-26T01:19:22.166Z,35.50
2023-01-26T01:21:50.155Z,33.40
2023-01-26T01:24:18.299Z,35.20
2023-01-26T01:26:46.431Z,35.80
2023-01-26T01:29:15.850Z,41.10
2023-01-26T01:31:44.689Z,43.30
2023-01-26T01:34:12.764Z,39.70
2023-01-26T01:36:41.491Z,40.50
2023-01-26T01:39:09.546Z,40.80
2023-01-26T01:41:37.752Z,36.40
2023-01-26T01:44:17.895Z,41.90
2023-01-26T01:46:49.537Z,43.20
2023-01-26T01:49:33.975Z,43.80
2023-01-26T01:52:18.514Z,44.60
2023-01-26T01:54:49.168Z,40.80
2023-01-26T01:57:28.616Z,43.10
2023-01-26T02:00:04.263Z,39.50
2023-01-26T02:02:41.752Z,43.60
2023-01-26T02:05:43.472Z,41.20
2023-01-26T02:08:13.579Z,42.70
2023-01-26T02:10:43.836Z,44.70
2023-01-26T02:13:11.811Z,45.60
2023-01-26T02:15:43.270Z,52.40
2023-01-26T02:18:11.617Z,49.60
2023-01-26T02:20:42.903Z,43.80
2023-01-26T02:23:13.939Z,46.00
2023-01-26T02:25:54.252Z,43.10
2023-01-26T02:28:26.060Z,44.70
2023-01-26T02:30:54.775Z,43.20
2023-01-26T02:33:25.849Z,43.20
2023-01-26T02:36:02.836Z,43.90
2023-01-26T02:38:39.460Z,43.60
2023-01-26T02:41:12.254Z,40.40
2023-01-26T02:43:43.561Z,42.00
2023-01-26T02:46:11.599Z,41.10
2023-01-26T02:48:58.706Z,41.70
2023-01-26T02:51:26.794Z,40.90
2023-01-26T02:53:54.998Z,38.70
2023-01-26T02:56:27.366Z,42.80
2023-01-26T02:58:56.256Z,39.60
2023-01-26T03:01:24.429Z,40.00
2023-01-26T03:03:52.406Z,41.20
2023-01-26T03:06:21.275Z,46.60
2023-01-26T03:08:49.356Z,44.00
2023-01-26T03:11:17.647Z,44.00
2023-01-26T03:13:45.818Z,46.50
2023-01-26T03:16:18.579Z,40.20
2023-01-26T03:19:04.949Z,43.40
2023-01-26T03:21:52.221Z,44.20
2023-01-26T03:24:38.997Z,46.30
2023-01-26T03:27:28.214Z,52.40
2023-01-26T03:29:59.548Z,43.90
2023-01-26T03:32:31.052Z,47.10
2023-01-26T03:34:59.917Z,45.10
2023-01-26T03:37:27.960Z,45.40
2023-01-26T03:40:20.503Z,37.10
2023-01-26T03:43:07.537Z,42.40
2023-01-26T03:45:55.030Z,45.50
2023-01-26T03:48:42.981Z,43.00
2023-01-26T03:51:30.307Z,47.90
2023-01-26T03:54:18.099Z,45.80
2023-01-26T03:56:46.238Z,45.20
2023-01-26T03:59:16.941Z,47.80
2023-01-26T04:02:05.173Z,45.20
2023-01-26T04:04:54.472Z,47.00
2023-01-26T04:07:46.491Z,47.60
2023-01-26T04:10:15.402Z,50.20
2023-01-26T04:12:51.061Z,54.80
2023-01-26T04:15:39.163Z,54.50
2023-01-26T04:18:26.848Z,57.80
2023-01-26T04:21:15.171Z,53.40
2023-01-26T04:23:45.026Z,56.00
2023-01-26T04:26:13.557Z,50.00
2023-01-26T04:28:42.061Z,56.30
2023-01-26T04:31:10.209Z,63.30
2023-01-26T04:33:39.213Z,57.60
2023-01-26T04:36:08.262Z,59.40
2023-01-26T04:38:38.833Z,61.50
2023-01-26T04:41:07.711Z,59.30
2023-01-26T04:43:42.568Z,59.10
2023-01-26T04:46:11.441Z,54.70
2023-01-26T04:48:40.845Z,59.10
2023-01-26T04:51:13.669Z,54.20
2023-01-26T04:53:41.903Z,53.70
2023-01-26T04:56:22.806Z,56.50
2023-01-26T04:58:52.534Z,54.10
2023-01-26T05:01:20.722Z,54.40
2023-01-26T05:03:49.047Z,52.30
2023-01-26T07:23:34.975Z,52.70
2023-01-26T07:26:03.674Z,49.60
2023-01-26T07:28:31.621Z,49.20
2023-01-26T07:31:00.467Z,51.80
2023-01-26T07:33:29.177Z,59.70
2023-01-26T07:35:57.521Z,53.40
2023-01-26T07:38:26.271Z,48.30
2023-01-26T07:40:54.342Z,47.70
2023-01-26T07:43:22.177Z,57.00
2023-01-26T07:45:53.378Z,52.60
2023-01-26T07:48:23.238Z,57.50
2023-01-26T07:50:51.219Z,56.90
2023-01-26T07:53:19.562Z,54.70
2023-01-26T07:55:47.765Z,47.40
2023-01-26T07:58:15.792Z,53.50
2023-01-26T08:03:58.772Z,48.20
2023-01-26T08:06:26.791Z,50.30
2023-01-26T08:08:55.067Z,50.60
2023-01-26T11:03:42.018Z,18.80
2023-01-26T11:19:12.345Z,17.90
2023-01-26T11:21:55.759Z,17.70
2023-01-26T11:24:29.230Z,16.20
2023-01-26T11:27:34.491Z,18.80
2023-01-26T11:30:27.534Z,17.40
2023-01-26T11:33:26.622Z,17.40
2023-01-26T11:36:01.369Z,15.70
2023-01-26T11:38:35.728Z,15.80
2023-01-26T11:41:22.397Z,19.60
2023-01-26T11:44:15.183Z,20.40
2023-01-26T11:46:56.155Z,28.20
2023-01-26T11:49:48.075Z,21.90
2023-01-26T11:52:29.679Z,20.90
2023-01-26T11:55:03.577Z,26.10
2023-01-26T11:57:43.135Z,24.30
2023-01-26T12:00:29.403Z,22.20
2023-01-26T12:03:02.132Z,23.80
2023-01-26T12:05:35.524Z,24.00
2023-01-26T12:10:36.752Z,24.80
2023-01-26T12:13:06.702Z,23.30
2023-01-26T12:15:37.498Z,25.10
2023-01-26T12:18:09.265Z,22.30
2023-01-26T12:21:22.784Z,26.10
2023-01-26T12:23:58.540Z,26.10
2023-01-26T12:26:26.507Z,26.00
2023-01-26T12:29:09.303Z,30.90
2023-01-26T12:32:08.495Z,25.50
2023-01-26T12:34:36.541Z,29.30
2023-01-26T12:37:31.210Z,29.10
2023-01-26T12:40:33.486Z,25.60
2023-01-26T12:43:32.745Z,30.10
2023-01-26T12:46:01.162Z,29.40
2023-01-26T12:48:36.018Z,32.70
2023-01-26T12:51:11.438Z,30.70
2023-01-26T12:53:44.212Z,30.70
2023-01-26T12:56:41.056Z,30.30
2023-01-26T12:59:47.055Z,31.80
2023-01-26T13:02:25.288Z,29.90
2023-01-26T13:04:53.210Z,29.50
2023-01-26T13:07:32.206Z,33.40
2023-01-26T13:10:16.234Z,33.60
2023-01-26T13:13:01.849Z,30.00
2023-01-26T13:15:31.472Z,33.20
2023-01-26T13:18:01.242Z,31.10
2023-01-26T13:20:43.302Z,31.20
2023-01-26T13:23:37.245Z,31.20
2023-01-26T13:26:24.061Z,37.90
2023-01-26T13:28:52.522Z,33.50
2023-01-26T13:31:32.251Z,31.70
2023-01-26T13:34:02.596Z,33.60
2023-01-26T13:36:35.200Z,40.00
2023-01-26T13:39:13.171Z,35.10
2023-01-26T13:41:47.544Z,33.00
2023-01-26T13:44:18.762Z,34.80
2023-01-26T13:47:20.932Z,45.00
2023-01-26T13:49:50.739Z,42.80
2023-01-26T13:52:23.221Z,36.20
2023-01-26T13:54:53.076Z,38.20
2023-01-26T13:57:29.100Z,32.10
2023-01-26T14:00:01.752Z,38.10
2023-01-26T14:02:38.993Z,30.10
2023-01-26T14:05:08.606Z,39.20
2023-01-26T14:07:43.672Z,36.00
2023-01-26T14:10:17.022Z,33.20
2023-01-26T14:12:55.938Z,34.30
2023-01-26T14:15:29.306Z,37.00
2023-01-26T14:18:02.494Z,36.40
2023-01-26T14:20:32.092Z,34.80
2023-01-26T14:23:18.887Z,38.50
2023-01-26T14:26:18.933Z,35.00
2023-01-26T14:28:47.210Z,35.60
2023-01-26T14:31:25.501Z,31.90
2023-01-26T14:33:57.724Z,32.40
2023-01-26T14:36:28.530Z,33.20
2023-01-26T14:38:56.713Z,32.80
2023-01-26T14:41:30.012Z,32.00
2023-01-26T14:44:01.902Z,29.10
2023-01-26T14:46:54.798Z,31.10
2023-01-26T14:49:54.523Z,34.60
2023-01-26T14:52:25.137Z,33.80
2023-01-26T14:54:58.054Z,32.80
2023-01-26T14:57:27.350Z,39.00
2023-01-26T14:59:57.766Z,37.50
2023-01-26T15:02:42.527Z,33.60
2023-01-26T15:05:13.398Z,36.90
2023-01-26T15:07:43.271Z,40.50
2023-01-26T15:10:30.400Z,36.60
2023-01-26T15:13:11.368Z,40.30
2023-01-26T15:16:01.184Z,41.00
2023-01-26T15:18:33.321Z,40.60
2023-01-26T15:21:20.737Z,38.80
2023-01-26T15:23:52.400Z,36.50
2023-01-26T15:26:26.836Z,41.60
2023-01-26T15:28:56.091Z,43.90
2023-01-26T15:31:35.179Z,44.50
2023-01-26T15:34:05.092Z,47.20
2023-01-26T15:36:50.068Z,45.60
2023-01-26T15:39:21.399Z,48.30
2023-01-26T15:42:15.569Z,52.60
2023-01-26T15:44:43.648Z,57.00
2023-01-26T15:47:13.602Z,56.20
2023-01-26T15:49:42.942Z,48.40
2023-01-26T15:52:21.769Z,49.10
2023-01-26T15:54:51.935Z,54.90
2023-01-26T15:57:19.981Z,58.00
2023-01-26T15:59:48.452Z,55.00
2023-01-26T16:02:19.307Z,54.40
2023-01-26T16:04:47.470Z,57.80
2023-01-26T16:07:17.205Z,59.10
2023-01-26T16:09:45.656Z,63.20
2023-01-26T16:12:33.254Z,48.70
2023-01-26T16:15:02.693Z,53.10
2023-01-26T16:17:31.269Z,47.30
2023-01-26T16:20:00.466Z,52.90
2023-01-26T16:22:28.744Z,50.60
2023-01-26T16:24:56.688Z,45.70
2023-01-26T16:27:25.044Z,47.40
2023-01-26T16:29:53.573Z,43.90
2023-01-26T16:32:28.436Z,49.20
2023-01-26T16:34:56.483Z,48.50
2023-01-26T16:37:24.758Z,51.70
2023-01-26T16:39:52.828Z,46.40
2023-01-26T16:42:22.361Z,43.60
2023-01-26T16:44:50.723Z,39.50
2023-01-26T16:47:18.860Z,36.70
2023-01-26T16:49:50.328Z,41.10
2023-01-26T16:52:18.391Z,42.20
2023-01-26T16:54:48.414Z,39.00
2023-01-26T16:57:17.150Z,36.50
2023-01-26T16:59:45.353Z,35.50
2023-01-26T17:02:24.152Z,34.70
2023-01-26T17:04:52.288Z,35.30
2023-01-26T17:07:20.435Z,36.60
2023-01-26T17:09:48.417Z,36.90
2023-01-26T17:12:16.576Z,39.10
2023-01-26T17:14:44.571Z,38.10
2023-01-26T17:17:13.029Z,37.60
2023-01-26T17:19:41.096Z,34.30
2023-01-26T17:22:09.286Z,34.20
2023-01-26T17:24:37.235Z,38.60
2023-01-26T17:27:05.659Z,35.10
2023-01-26T17:29:34.061Z,40.60
2023-01-26T17:32:02.628Z,37.10
2023-01-26T17:34:30.779Z,33.90
2023-01-26T17:37:00.259Z,39.80
2023-01-26T17:39:28.337Z,41.80
2023-01-26T17:41:56.654Z,38.80
2023-01-26T17:44:24.882Z,31.40
2023-01-26T17:46:53.581Z,35.40
2023-01-26T17:49:22.416Z,43.20
2023-01-26T17:51:50.845Z,37.90
2023-01-26T17:54:19.329Z,41.80
2023-01-26T17:56:47.396Z,40.80
2023-01-26T17:59:15.569Z,34.90
2023-01-26T18:01:43.644Z,39.10
2023-01-26T18:04:11.620Z,38.20
2023-01-26T18:06:39.627Z,39.80
2023-01-26T18:09:08.201Z,35.20
2023-01-26T18:11:36.293Z,35.20
2023-01-26T18:14:04.658Z,35.70
2023-01-26T18:16:33.829Z,37.90
2023-01-26T18:19:04.637Z,40.40
2023-01-26T18:21:36.095Z,40.30
2023-01-26T18:24:05.415Z,38.60
2023-01-26T18:26:35.763Z,37.60
2023-01-26T18:29:04.924Z,40.10
2023-01-26T18:31:37.710Z,38.30
2023-01-26T18:34:06.201Z,37.90
2023-01-26T18:36:34.785Z,44.30
2023-01-26T18:39:05.654Z,36.70
2023-01-26T18:41:35.975Z,40.30
2023-01-26T18:44:04.307Z,40.80
2023-01-26T18:46:32.309Z,42.00
2023-01-26T18:49:01.485Z,39.90
2023-01-26T18:51:34.898Z,34.70
2023-01-26T18:54:04.476Z,41.00
2023-01-26T18:56:33.905Z,34.90
2023-01-26T18:59:02.166Z,43.00
2023-01-26T19:01:31.082Z,41.00
2023-01-26T19:04:02.289Z,43.30
2023-01-26T19:06:32.720Z,34.70
2023-01-26T19:09:05.772Z,39.10
2023-01-26T19:11:37.716Z,39.10
2023-01-26T19:14:07.271Z,38.40
2023-01-26T19:16:36.625Z,38.20
2023-01-26T19:19:05.414Z,37.10
2023-01-26T19:21:34.095Z,40.60
2023-01-26T19:24:06.513Z,34.10
2023-01-26T19:26:35.006Z,40.50
2023-01-26T19:29:04.116Z,43.10
2023-01-26T19:31:32.960Z,41.30
2023-01-26T19:34:02.794Z,39.80
2023-01-26T19:36:32.241Z,45.00
2023-01-26T19:39:01.609Z,37.70
2023-01-26T19:41:29.995Z,39.60
2023-01-26T19:43:58.076Z,42.70
2023-01-26T19:46:26.880Z,42.70
2023-01-26T19:48:55.147Z,46.10
2023-01-26T19:51:25.148Z,45.40
2023-01-26T19:56:30.827Z,44.50
2023-01-26T19:59:00.578Z,45.10
2023-01-26T20:01:33.225Z,43.20
2023-01-26T20:04:03.724Z,43.60
2023-01-26T20:06:33.393Z,46.60
2023-01-26T20:09:03.601Z,42.00
2023-01-26T20:11:32.238Z,39.40
2023-01-26T20:14:06.296Z,42.40
2023-01-26T20:16:35.405Z,40.00
2023-01-26T20:19:05.472Z,42.30
2023-01-26T20:21:34.354Z,49.60
2023-01-26T20:24:06.033Z,43.20
2023-01-26T20:26:35.580Z,42.60
2023-01-26T20:29:04.830Z,48.70
2023-01-26T20:31:33.719Z,46.40
2023-01-26T20:34:02.673Z,44.90
2023-01-26T20:36:32.004Z,49.10
2023-01-26T20:39:00.580Z,39.90
2023-01-26T20:41:32.454Z,44.90
2023-01-26T20:44:02.958Z,44.60
2023-01-26T20:46:39.204Z,46.10
2023-01-26T20:49:08.821Z,47.50
2023-01-26T20:51:38.364Z,37.10
2023-01-26T20:54:07.849Z,41.80
2023-01-26T20:56:36.645Z,42.60
2023-01-26T20:59:07.573Z,44.40
2023-01-26T21:01:36.686Z,42.30
2023-01-26T21:04:05.295Z,46.20
2023-01-26T21:06:33.983Z,43.30
2023-01-26T21:09:02.291Z,42.00
2023-01-26T21:11:31.636Z,43.60
2023-01-26T21:14:03.101Z,48.20
2023-01-26T21:16:32.232Z,46.40
2023-01-26T21:19:00.224Z,42.70
2023-01-26T21:21:28.631Z,41.20
2023-01-26T21:23:56.820Z,42.90
2023-01-26T21:26:25.724Z,42.50
2023-01-26T21:28:55.962Z,41.00
2023-01-26T21:31:27.613Z,39.70
2023-01-26T21:33:55.733Z,41.20
2023-01-26T21:36:25.655Z,40.30
2023-01-26T21:38:57.000Z,39.30
2023-01-26T21:41:46.391Z,49.40
2023-01-26T21:44:16.317Z,46.80
2023-01-26T21:46:45.533Z,46.60
2023-01-26T21:49:13.773Z,46.00
2023-01-26T21:52:03.266Z,37.70
2023-01-26T21:54:31.929Z,39.80
2023-01-26T21:57:00.721Z,45.40
2023-01-26T21:59:32.362Z,36.00
2023-01-26T22:02:00.948Z,41.20
2023-01-26T22:04:30.558Z,41.70
2023-01-26T22:06:59.846Z,41.10
2023-01-26T22:09:28.473Z,38.50
2023-01-26T22:11:56.884Z,38.40
2023-01-26T22:14:26.432Z,36.40
2023-01-26T22:16:55.291Z,39.90
2023-01-26T22:19:23.388Z,35.90
2023-01-26T22:21:51.625Z,38.10
2023-01-26T22:24:20.104Z,37.50
2023-01-26T22:26:49.041Z,37.90
2023-01-26T22:29:17.041Z,33.10
2023-01-26T22:31:45.943Z,35.60
2023-01-26T22:34:14.388Z,35.50
2023-01-26T22:36:43.041Z,39.10
2023-01-26T22:39:12.474Z,35.70
2023-01-26T22:41:41.113Z,33.80
2023-01-26T22:44:09.490Z,35.10
2023-01-26T22:46:37.699Z,35.10
2023-01-26T22:49:06.281Z,35.80
2023-01-26T22:51:37.613Z,39.00
2023-01-26T22:54:06.045Z,35.10
2023-01-26T22:56:35.304Z,35.70
2023-01-26T22:59:03.610Z,37.40
2023-01-26T23:01:34.051Z,34.20
2023-01-26T23:04:02.900Z,35.70
2023-01-26T23:06:31.276Z,31.10
2023-01-26T23:09:01.301Z,35.50
2023-01-26T23:11:30.698Z,35.60
2023-01-26T23:13:58.956Z,38.60
2023-01-26T23:16:27.435Z,37.30
2023-01-26T23:18:57.200Z,32.90
2023-01-26T23:21:26.789Z,33.70
2023-01-26T23:26:48.100Z,36.90
2023-01-26T23:29:16.341Z,34.90
2023-01-26T23:31:45.180Z,38.10
2023-01-26T23:34:13.280Z,37.10
2023-01-26T23:36:41.446Z,35.00
2023-01-26T23:39:09.702Z,35.80
2023-01-26T23:41:37.860Z,37.50
2023-01-26T23:44:05.900Z,40.90
2023-01-26T23:46:36.250Z,37.10
2023-01-26T23:49:04.283Z,36.10
2023-01-26T23:51:32.668Z,33.60
2023-01-26T23:54:00.917Z,33.00
2023-01-26T23:56:29.642Z,34.50
2023-01-26T23:58:57.974Z,37.30
